createdAt,value
2018-12-12T00:00:11.420Z,5.36
2018-12-12T00:02:40.675Z,5.38
2018-12-12T00:05:29.539Z,5.41
2018-12-12T00:07:58.800Z,5.43
2018-12-12T00:10:28.074Z,5.42
2018-12-12T00:12:57.327Z,5.43
2018-12-12T00:15:26.598Z,5.48
2018-12-12T00:17:55.940Z,5.50
2018-12-12T00:20:25.267Z,5.52
2018-12-12T00:22:54.521Z,5.51
2018-12-12T00:25:23.785Z,5.52
2018-12-12T00:27:53.047Z,5.54
2018-12-12T00:30:22.324Z,5.53
2018-12-12T00:32:51.579Z,5.52
2018-12-12T00:35:20.874Z,5.51
2018-12-12T00:37:50.124Z,5.51
2018-12-12T00:40:19.421Z,5.53
2018-12-12T00:42:48.686Z,5.55
2018-12-12T00:45:17.941Z,5.59
2018-12-12T00:47:47.191Z,5.62
2018-12-12T00:50:16.468Z,5.65
2018-12-12T00:53:05.313Z,5.67
2018-12-12T00:55:34.606Z,5.70
2018-12-12T00:58:03.967Z,5.71
2018-12-12T01:00:33.242Z,5.72
2018-12-12T01:03:02.519Z,5.74
2018-12-12T01:05:31.798Z,5.76
2018-12-12T01:08:01.082Z,5.77
2018-12-12T01:10:30.385Z,5.77
2018-12-12T01:12:59.654Z,5.77
2018-12-12T01:15:28.931Z,5.79
2018-12-12T01:17:58.194Z,5.79
2018-12-12T01:20:27.463Z,5.78
2018-12-12T01:22:56.757Z,5.78
2018-12-12T01:25:26.039Z,5.79
2018-12-12T01:27:55.297Z,5.80
2018-12-12T01:30:24.570Z,5.79
2018-12-12T01:32:53.833Z,5.79
2018-12-12T01:35:23.115Z,5.80
2018-12-12T01:37:52.377Z,5.79
2018-12-12T01:40:21.654Z,5.80
2018-12-12T01:42:50.922Z,5.80
2018-12-12T01:45:20.203Z,5.82
2018-12-12T01:47:49.473Z,5.84
2018-12-12T01:50:18.748Z,5.85
2018-12-12T01:52:48.013Z,5.87
2018-12-12T01:55:17.302Z,5.87
2018-12-12T01:57:46.563Z,5.87
2018-12-12T02:00:15.848Z,5.87
2018-12-12T02:02:45.093Z,5.90
2018-12-12T02:05:14.335Z,5.89
2018-12-12T02:07:43.674Z,5.89
2018-12-12T02:10:12.914Z,5.90
2018-12-12T02:12:42.170Z,5.89
2018-12-12T02:15:11.415Z,5.90
2018-12-12T02:17:40.744Z,5.88
2018-12-12T02:20:10.027Z,5.87
2018-12-12T02:22:39.320Z,5.86
2018-12-12T02:25:08.572Z,5.88
2018-12-12T02:27:37.861Z,5.85
2018-12-12T02:30:07.178Z,5.80
2018-12-12T02:32:36.412Z,5.80
2018-12-12T02:35:06.426Z,5.80
2018-12-12T02:37:35.718Z,5.80
2018-12-12T02:40:05.066Z,5.82
2018-12-12T02:42:34.369Z,5.81
2018-12-12T02:45:03.644Z,5.81
2018-12-12T02:47:32.926Z,5.82
2018-12-12T02:50:02.186Z,5.84
2018-12-12T02:52:31.453Z,5.84
2018-12-12T02:55:00.737Z,5.83
2018-12-12T02:57:30.007Z,5.85
2018-12-12T02:59:59.265Z,5.85
2018-12-12T03:02:28.554Z,5.85
2018-12-12T03:04:57.803Z,5.87
2018-12-12T03:07:27.065Z,5.87
2018-12-12T03:09:56.315Z,5.85
2018-12-12T03:12:25.590Z,5.86
2018-12-12T03:14:54.859Z,5.87
2018-12-12T03:17:24.140Z,5.87
2018-12-12T03:19:53.410Z,5.89
2018-12-12T03:22:22.682Z,5.88
2018-12-12T03:24:51.940Z,5.89
2018-12-12T03:27:21.212Z,5.91
2018-12-12T03:29:50.482Z,5.92
2018-12-12T03:32:19.739Z,5.93
2018-12-12T03:34:49.012Z,5.93
2018-12-12T03:37:18.305Z,5.94
2018-12-12T03:39:47.603Z,5.94
2018-12-12T03:42:16.871Z,5.95
2018-12-12T03:44:46.141Z,5.94
2018-12-12T03:47:15.417Z,5.96
2018-12-12T03:49:44.673Z,5.96
2018-12-12T03:52:13.952Z,5.96
2018-12-12T03:54:43.210Z,5.98
2018-12-12T03:57:12.495Z,5.99
2018-12-12T03:59:41.772Z,6.01
2018-12-12T04:02:11.035Z,6.04
2018-12-12T04:04:40.292Z,6.06
2018-12-12T04:07:09.622Z,6.08
2018-12-12T04:09:38.893Z,6.09
2018-12-12T04:12:08.170Z,6.09
2018-12-12T04:14:37.441Z,6.10
2018-12-12T04:17:06.712Z,6.10
2018-12-12T04:19:36.022Z,6.11
2018-12-12T04:22:05.241Z,6.11
2018-12-12T04:24:34.498Z,6.12
2018-12-12T04:27:03.772Z,6.09
2018-12-12T04:29:33.049Z,6.08
2018-12-12T04:32:02.334Z,6.09
2018-12-12T04:34:31.591Z,6.09
2018-12-12T04:37:00.855Z,6.08
2018-12-12T04:39:30.119Z,6.08
2018-12-12T04:41:59.383Z,6.07
2018-12-12T04:44:28.659Z,6.07
2018-12-12T04:46:57.920Z,6.07
2018-12-12T04:49:27.201Z,6.06
2018-12-12T04:51:56.461Z,6.07
2018-12-12T04:54:25.748Z,6.08
2018-12-12T04:56:55.023Z,6.09
2018-12-12T04:59:24.478Z,6.08
2018-12-12T05:01:53.733Z,6.10
2018-12-12T05:04:23.007Z,6.10
2018-12-12T05:06:52.262Z,6.11
2018-12-12T05:09:21.541Z,6.14
2018-12-12T05:11:50.798Z,6.16
2018-12-12T05:14:20.064Z,6.17
2018-12-12T05:16:49.326Z,6.19
2018-12-12T05:19:18.598Z,6.19
2018-12-12T05:21:47.876Z,6.20
2018-12-12T05:24:17.148Z,6.20
2018-12-12T05:27:06.311Z,6.21
2018-12-12T05:29:35.553Z,6.22
2018-12-12T05:32:04.825Z,6.22
2018-12-12T05:34:34.095Z,6.23
2018-12-12T05:37:03.354Z,6.24
2018-12-12T05:39:32.676Z,6.25
2018-12-12T05:42:01.940Z,6.23
2018-12-12T05:44:31.219Z,6.23
2018-12-12T05:47:00.483Z,6.23
2018-12-12T05:49:29.743Z,6.22
2018-12-12T05:51:59.009Z,6.23
2018-12-12T05:54:28.277Z,6.21
2018-12-12T05:56:57.531Z,6.21
2018-12-12T05:59:26.806Z,6.21
2018-12-12T06:02:15.963Z,6.19
2018-12-12T06:09:54.818Z,6.12
2018-12-12T06:15:12.477Z,6.07
2018-12-12T06:17:41.739Z,6.05
2018-12-12T06:20:11.032Z,6.04
2018-12-12T06:25:29.593Z,6.01
2018-12-12T06:27:58.858Z,6.00
2018-12-12T06:30:28.148Z,5.99
2018-12-12T06:32:57.414Z,5.99
2018-12-12T06:35:26.691Z,5.99
2018-12-12T06:37:56.050Z,6.00
2018-12-12T06:40:25.343Z,6.00
2018-12-12T06:42:54.603Z,5.99
2018-12-12T06:45:23.883Z,5.99
2018-12-12T06:47:53.145Z,5.99
2018-12-12T06:50:22.417Z,6.03
2018-12-12T06:52:51.682Z,6.01
2018-12-12T06:55:20.959Z,6.02
2018-12-12T06:57:50.230Z,6.04
2018-12-12T07:00:19.539Z,6.04
2018-12-12T07:02:48.790Z,6.06
2018-12-12T07:05:18.071Z,6.07
2018-12-12T07:07:47.336Z,6.09
2018-12-12T07:10:16.614Z,6.10
2018-12-12T07:12:45.884Z,6.11
2018-12-12T07:15:15.164Z,6.12
2018-12-12T07:17:44.435Z,6.12
2018-12-12T07:20:13.715Z,6.12
2018-12-12T07:22:42.976Z,6.10
2018-12-12T07:25:12.274Z,6.11
2018-12-12T07:27:41.541Z,6.09
2018-12-12T07:30:10.822Z,6.08
2018-12-12T07:32:40.087Z,6.07
2018-12-12T07:35:09.403Z,6.05
2018-12-12T07:37:38.667Z,6.04
2018-12-12T07:40:07.946Z,6.04
2018-12-12T07:42:37.216Z,6.02
2018-12-12T07:45:06.498Z,6.01
2018-12-12T07:47:35.763Z,6.01
2018-12-12T07:50:05.431Z,6.01
2018-12-12T07:52:34.729Z,6.02
2018-12-12T07:55:04.041Z,6.01
2018-12-12T07:57:52.322Z,6.03
2018-12-12T08:00:21.605Z,6.04
2018-12-12T08:02:50.866Z,6.05
2018-12-12T08:05:20.138Z,6.06
2018-12-12T08:07:49.407Z,6.05
2018-12-12T08:10:18.687Z,6.06
2018-12-12T08:12:47.940Z,6.09
2018-12-12T08:15:17.213Z,6.10
2018-12-12T08:17:46.470Z,6.11
2018-12-12T08:20:15.738Z,6.13
2018-12-12T08:22:44.999Z,6.13
2018-12-12T08:25:14.273Z,6.15
2018-12-12T08:27:43.639Z,6.17
2018-12-12T08:30:12.923Z,6.18
2018-12-12T08:32:42.186Z,6.20
2018-12-12T08:35:11.461Z,6.21
2018-12-12T08:37:40.780Z,6.23
2018-12-12T08:40:10.348Z,6.26
2018-12-12T08:42:59.488Z,6.27
2018-12-12T08:45:28.783Z,6.30
2018-12-12T08:47:58.069Z,6.32
2018-12-12T08:50:27.354Z,6.34
2018-12-12T08:52:56.623Z,6.35
2018-12-12T08:55:25.902Z,6.38
2018-12-12T08:57:55.177Z,6.40
2018-12-12T09:00:24.460Z,6.42
2018-12-12T09:02:53.730Z,6.43
2018-12-12T09:05:23.041Z,6.47
2018-12-12T09:07:52.334Z,6.51
2018-12-12T09:10:21.611Z,6.56
2018-12-12T09:12:50.875Z,6.60
2018-12-12T09:15:20.165Z,6.64
2018-12-12T09:17:49.438Z,6.68
2018-12-12T09:20:18.717Z,6.72
2018-12-12T09:22:47.986Z,6.76
2018-12-12T09:25:17.258Z,6.78
2018-12-12T09:27:46.557Z,6.80
2018-12-12T09:30:15.824Z,6.82
2018-12-12T09:32:45.107Z,6.86
2018-12-12T09:35:14.371Z,6.88
2018-12-12T09:37:43.648Z,6.90
2018-12-12T09:40:12.917Z,6.91
2018-12-12T09:42:42.197Z,6.93
2018-12-12T09:45:11.463Z,6.95
2018-12-12T09:47:40.761Z,6.97
2018-12-12T09:50:10.020Z,6.97
2018-12-12T09:52:39.305Z,6.98
2018-12-12T09:55:08.578Z,7.00
2018-12-12T09:57:37.864Z,7.01
2018-12-12T10:00:07.188Z,7.05
2018-12-12T10:02:36.482Z,7.08
2018-12-12T10:05:06.059Z,7.11
2018-12-12T10:07:35.336Z,7.10
2018-12-12T10:10:04.623Z,7.08
2018-12-12T10:12:33.899Z,7.05
2018-12-12T10:15:03.162Z,7.01
2018-12-12T10:17:32.440Z,6.99
2018-12-12T10:20:21.299Z,7.01
2018-12-12T10:22:50.585Z,7.01
2018-12-12T10:25:19.835Z,7.00
2018-12-12T10:27:49.112Z,7.05
2018-12-12T10:30:18.380Z,7.08
2018-12-12T10:32:47.634Z,7.08
2018-12-12T10:35:16.896Z,7.06
2018-12-12T10:37:46.166Z,7.03
2018-12-12T10:40:15.419Z,7.02
2018-12-12T10:42:44.701Z,7.06
2018-12-12T10:45:13.954Z,7.06
2018-12-12T10:48:02.274Z,7.05
2018-12-12T10:50:31.552Z,7.09
2018-12-12T10:53:00.822Z,7.13
2018-12-12T10:55:30.100Z,7.15
2018-12-12T10:57:59.367Z,7.15
2018-12-12T11:00:28.618Z,7.11
2018-12-12T11:03:16.611Z,7.13
2018-12-12T11:06:05.492Z,7.16
2018-12-12T11:08:34.769Z,7.14
2018-12-12T11:11:04.024Z,7.15
2018-12-12T11:13:33.305Z,7.21
2018-12-12T11:16:02.576Z,7.27
2018-12-12T11:18:31.863Z,7.27
2018-12-12T11:21:01.142Z,7.27
2018-12-12T11:23:30.413Z,7.31
2018-12-12T11:25:59.696Z,7.36
2018-12-12T11:28:28.970Z,7.35
2018-12-12T11:30:58.241Z,7.33
2018-12-12T11:33:27.514Z,7.33
2018-12-12T11:35:56.777Z,7.40
2018-12-12T11:38:26.041Z,7.44
2018-12-12T11:40:55.323Z,7.49
2018-12-12T11:43:24.598Z,7.53
2018-12-12T11:45:53.879Z,7.56
2018-12-12T11:48:30.403Z,7.56
2018-12-12T11:50:59.681Z,7.59
2018-12-12T11:53:28.933Z,7.62
2018-12-12T11:55:58.206Z,7.54
2018-12-12T11:58:27.463Z,7.49
2018-12-12T12:00:56.756Z,7.45
2018-12-12T12:03:26.035Z,7.47
2018-12-12T12:05:55.314Z,7.45
2018-12-12T12:08:24.583Z,7.45
2018-12-12T12:10:53.863Z,7.48
2018-12-12T12:13:23.118Z,7.53
2018-12-12T12:15:52.397Z,7.54
2018-12-12T12:18:21.647Z,7.51
2018-12-12T12:20:50.984Z,7.48
2018-12-12T12:23:20.284Z,7.50
2018-12-12T12:25:49.554Z,7.52
2018-12-12T12:28:18.823Z,7.53
2018-12-12T12:30:48.106Z,7.53
2018-12-12T12:33:17.373Z,7.51
2018-12-12T12:35:46.667Z,7.53
2018-12-12T12:38:15.987Z,7.54
2018-12-12T12:40:45.264Z,7.57
2018-12-12T12:43:14.527Z,7.55
2018-12-12T12:45:43.807Z,7.53
2018-12-12T12:48:13.083Z,7.52
2018-12-12T12:50:42.356Z,7.52
2018-12-12T12:53:11.613Z,7.49
2018-12-12T12:55:40.918Z,7.45
2018-12-12T12:58:10.170Z,7.44
2018-12-12T13:00:39.460Z,7.48
2018-12-12T13:03:08.718Z,7.47
2018-12-12T13:05:37.982Z,7.47
2018-12-12T13:08:07.248Z,7.53
2018-12-12T13:10:36.586Z,7.57
2018-12-12T13:18:17.481Z,7.61
2018-12-12T13:20:46.743Z,7.66
2018-12-12T13:23:16.067Z,7.63
2018-12-12T13:25:45.325Z,7.60
2018-12-12T13:28:14.607Z,7.46
2018-12-12T13:30:43.874Z,7.32
2018-12-12T13:33:13.143Z,7.21
2018-12-12T13:35:42.474Z,7.15
2018-12-12T13:38:11.738Z,7.13
2018-12-12T13:40:41.002Z,7.15
2018-12-12T13:43:10.282Z,7.16
2018-12-12T13:46:05.633Z,7.19
2018-12-12T13:48:09.726Z,7.24
2018-12-12T13:50:38.993Z,7.27
2018-12-12T13:53:08.271Z,7.34
2018-12-12T13:55:37.528Z,7.38
2018-12-12T13:58:07.074Z,7.38
2018-12-12T14:00:39.194Z,7.30
2018-12-12T14:03:06.500Z,7.22
2018-12-12T14:05:35.790Z,7.24
2018-12-12T14:10:40.282Z,7.24
2018-12-12T14:13:09.545Z,7.24
2018-12-12T14:15:38.811Z,7.23
2018-12-12T14:18:08.091Z,7.22
2018-12-12T14:20:56.416Z,7.22
2018-12-12T14:23:25.682Z,7.21
2018-12-12T14:25:54.954Z,7.21
2018-12-12T14:28:24.215Z,7.22
2018-12-12T14:30:53.474Z,7.22
2018-12-12T14:33:22.790Z,7.20
2018-12-12T14:35:52.045Z,7.19
2018-12-12T14:38:21.308Z,7.14
2018-12-12T14:40:50.585Z,7.08
2018-12-12T14:43:19.846Z,7.04
2018-12-12T14:45:49.111Z,7.07
2018-12-12T14:48:18.378Z,7.08
2018-12-12T14:50:47.642Z,7.04
2018-12-12T14:56:05.307Z,7.03
2018-12-12T14:58:34.576Z,6.99
2018-12-12T15:01:03.883Z,7.00
2018-12-12T15:03:33.146Z,6.92
2018-12-12T15:06:02.443Z,6.82
2018-12-12T15:08:31.707Z,6.73
2018-12-12T15:11:00.984Z,6.70
2018-12-12T15:13:30.249Z,6.69
2018-12-12T15:15:59.516Z,6.71
2018-12-12T15:18:28.773Z,6.73
2018-12-12T15:20:58.048Z,6.74
2018-12-12T15:23:27.309Z,6.73
2018-12-12T15:25:56.575Z,6.70
2018-12-12T15:28:25.831Z,6.63
2018-12-12T15:30:55.097Z,6.60
2018-12-12T15:33:24.368Z,6.56
2018-12-12T15:35:53.842Z,6.53
2018-12-12T15:38:23.108Z,6.49
2018-12-12T15:40:52.425Z,6.46
2018-12-12T15:43:21.762Z,6.43
2018-12-12T15:45:51.087Z,6.37
2018-12-12T15:48:20.378Z,6.33
2018-12-12T15:50:49.615Z,6.25
2018-12-12T15:53:18.895Z,6.19
2018-12-12T15:55:48.201Z,6.12
2018-12-12T15:58:17.466Z,6.06
2018-12-12T16:00:46.876Z,5.99
2018-12-12T16:03:16.142Z,5.91
2018-12-12T16:05:45.415Z,5.85
2018-12-12T16:08:14.702Z,5.77
2018-12-12T16:10:43.971Z,5.70
2018-12-12T16:13:13.272Z,5.64
2018-12-12T16:15:42.619Z,5.59
2018-12-12T16:18:11.879Z,5.53
2018-12-12T16:20:41.189Z,5.48
2018-12-12T16:23:30.051Z,5.44
2018-12-12T16:25:59.361Z,5.38
2018-12-12T16:28:28.613Z,5.30
2018-12-12T16:30:57.946Z,5.21
2018-12-12T16:33:27.208Z,5.19
2018-12-12T16:36:15.587Z,5.17
2018-12-12T16:38:44.852Z,5.17
2018-12-12T16:41:14.173Z,5.13
2018-12-12T16:43:43.520Z,5.09
2018-12-12T16:46:12.814Z,5.04
2018-12-12T16:48:42.090Z,5.03
2018-12-12T16:51:11.431Z,5.01
2018-12-12T16:53:40.702Z,4.97
2018-12-12T16:56:10.036Z,4.94
2018-12-12T16:58:39.310Z,4.92
2018-12-12T17:01:08.599Z,4.92
2018-12-12T17:03:37.856Z,4.89
2018-12-12T17:08:42.310Z,4.85
2018-12-12T17:11:11.611Z,4.83
2018-12-12T17:13:40.995Z,4.83
2018-12-12T17:16:10.359Z,4.82
2018-12-12T17:18:39.627Z,4.83
2018-12-12T17:21:08.950Z,4.83
2018-12-12T17:23:38.223Z,4.80
2018-12-12T17:26:07.570Z,4.83
2018-12-12T17:28:36.886Z,4.86
2018-12-12T17:31:06.098Z,4.89
2018-12-12T17:33:35.369Z,4.90
2018-12-12T17:36:04.636Z,4.93
2018-12-12T17:38:33.899Z,4.96
2018-12-12T17:41:23.800Z,4.98
2018-12-12T17:43:53.079Z,5.03
2018-12-12T17:46:22.331Z,5.03
2018-12-12T17:49:11.472Z,5.05
2018-12-12T17:51:40.806Z,5.08
2018-12-12T17:54:10.065Z,5.10
2018-12-12T17:56:39.333Z,5.11
2018-12-12T17:59:08.598Z,5.10
2018-12-12T18:01:37.868Z,5.15
2018-12-12T18:04:07.129Z,5.08
2018-12-12T18:06:55.991Z,5.05
2018-12-12T18:09:37.046Z,5.10
2018-12-12T18:12:06.318Z,5.14
2018-12-12T18:14:35.579Z,5.19
2018-12-12T18:17:04.836Z,5.22
2018-12-12T18:19:34.109Z,5.26
2018-12-12T18:22:03.361Z,5.31
2018-12-12T18:24:32.636Z,5.33
2018-12-12T18:27:03.163Z,5.33
2018-12-12T18:29:32.077Z,5.34
2018-12-12T18:32:01.331Z,5.37
2018-12-12T18:34:30.617Z,5.37
2018-12-12T18:36:59.875Z,5.36
2018-12-12T18:39:29.146Z,5.31
2018-12-12T18:41:58.412Z,5.54
2018-12-12T18:44:27.683Z,5.56
2018-12-12T18:46:56.949Z,5.55
2018-12-12T18:49:26.215Z,5.53
2018-12-12T18:51:55.486Z,5.47
2018-12-12T18:54:24.762Z,5.47
2018-12-12T18:56:54.025Z,5.45
2018-12-12T18:59:23.296Z,5.42
2018-12-12T19:01:52.559Z,5.39
2018-12-12T19:04:21.826Z,5.38
2018-12-12T19:06:51.090Z,5.36
2018-12-12T19:09:20.362Z,5.33
2018-12-12T19:11:49.617Z,5.24
2018-12-12T19:14:18.884Z,5.22
2018-12-12T19:16:48.155Z,5.12
2018-12-12T19:19:17.414Z,5.08
2018-12-12T19:21:46.691Z,5.07
2018-12-12T19:24:15.944Z,5.09
2018-12-12T19:26:45.214Z,5.09
2018-12-12T19:29:14.502Z,5.01
2018-12-12T19:31:43.781Z,4.94
2018-12-12T19:34:13.043Z,4.89
2018-12-12T19:36:42.312Z,4.86
2018-12-12T19:39:11.575Z,4.86
2018-12-12T19:41:40.839Z,4.90
2018-12-12T19:44:10.099Z,4.87
2018-12-12T19:46:39.380Z,4.92
2018-12-12T19:49:08.678Z,4.96
2018-12-12T19:51:38.045Z,4.99
2018-12-12T19:54:07.301Z,5.06
2018-12-12T19:56:36.573Z,5.14
2018-12-12T19:59:05.817Z,5.18
2018-12-12T20:01:35.098Z,5.15
2018-12-12T20:04:23.992Z,5.16
2018-12-12T20:06:53.286Z,5.18
2018-12-12T20:09:22.552Z,5.23
2018-12-12T20:12:11.422Z,5.26
2018-12-12T20:14:40.678Z,5.31
2018-12-12T20:17:09.960Z,5.30
2018-12-12T20:19:39.272Z,5.23
2018-12-12T20:22:08.579Z,5.24
2018-12-12T20:24:37.841Z,5.30
2018-12-12T20:27:07.132Z,5.34
2018-12-12T20:29:36.517Z,5.34
2018-12-12T20:32:05.866Z,5.32
2018-12-12T20:34:35.140Z,5.26
2018-12-12T20:37:04.506Z,5.25
2018-12-12T20:39:33.759Z,5.29
2018-12-12T20:42:03.025Z,5.29
2018-12-12T20:44:32.279Z,5.23
2018-12-12T20:47:01.561Z,5.21
2018-12-12T20:49:30.819Z,5.17
2018-12-12T20:52:00.089Z,5.11
2018-12-12T20:54:29.341Z,5.04
2018-12-12T20:56:58.624Z,5.06
2018-12-12T20:59:27.881Z,5.06
2018-12-12T21:01:57.146Z,5.04
2018-12-12T21:04:26.414Z,5.06
2018-12-12T21:06:55.690Z,5.05
2018-12-12T21:09:24.939Z,5.06
2018-12-12T21:11:54.223Z,5.06
2018-12-12T21:14:23.486Z,5.06
2018-12-12T21:17:11.812Z,5.06
2018-12-12T21:19:41.077Z,5.07
2018-12-12T21:22:10.365Z,5.07
2018-12-12T21:24:39.638Z,5.06
2018-12-12T21:27:08.902Z,5.05
2018-12-12T21:29:38.177Z,5.04
2018-12-12T21:32:07.443Z,5.05
2018-12-12T21:34:55.765Z,5.04
2018-12-12T21:37:25.030Z,5.06
2018-12-12T21:39:54.304Z,5.07
2018-12-12T21:42:23.558Z,5.09
2018-12-12T21:44:52.824Z,5.13
2018-12-12T21:47:22.072Z,5.13
2018-12-12T21:49:51.358Z,5.16
2018-12-12T21:52:20.614Z,5.20
2018-12-12T21:54:49.884Z,5.18
2018-12-12T21:57:19.128Z,5.15
2018-12-12T21:59:48.408Z,5.13
2018-12-12T22:02:17.658Z,5.17
2018-12-12T22:04:46.923Z,5.17
2018-12-12T22:07:16.169Z,5.11
2018-12-12T22:09:45.433Z,5.08
2018-12-12T22:12:14.690Z,5.11
2018-12-12T22:14:43.969Z,5.12
2018-12-12T22:17:13.215Z,5.13
2018-12-12T22:19:42.490Z,5.17
2018-12-12T22:22:11.741Z,5.23
2018-12-12T22:24:41.003Z,5.27
2018-12-12T22:27:10.279Z,5.30
2018-12-12T22:29:39.556Z,5.31
2018-12-12T22:32:08.803Z,5.29
2018-12-12T22:34:38.095Z,5.23
2018-12-12T22:37:07.352Z,5.14
2018-12-12T22:39:36.629Z,5.06
2018-12-12T22:42:05.990Z,5.03
2018-12-12T22:44:35.278Z,4.97
2018-12-12T22:47:04.532Z,4.91
2018-12-12T22:49:33.782Z,4.89
2018-12-12T22:52:03.048Z,4.86
2018-12-12T22:54:32.296Z,4.81
2018-12-12T22:57:01.563Z,4.77
2018-12-12T22:59:30.811Z,4.76
2018-12-12T23:02:00.079Z,4.80
2018-12-12T23:04:29.333Z,4.80
2018-12-12T23:06:58.628Z,4.80
2018-12-12T23:09:27.878Z,4.80
2018-12-12T23:11:57.142Z,4.80
2018-12-12T23:14:26.395Z,4.82
2018-12-12T23:16:55.659Z,4.82
2018-12-12T23:19:24.919Z,4.83
2018-12-12T23:21:54.190Z,4.82
2018-12-12T23:24:25.207Z,4.86
2018-12-12T23:26:53.633Z,4.87
2018-12-12T23:29:22.885Z,4.89
2018-12-12T23:31:52.192Z,4.89
2018-12-12T23:34:21.408Z,4.97
2018-12-12T23:36:50.676Z,5.10
2018-12-12T23:39:19.942Z,5.17
2018-12-12T23:41:49.226Z,5.16
2018-12-12T23:44:38.079Z,5.22
2018-12-12T23:47:07.375Z,5.28
2018-12-12T23:49:36.618Z,5.34
2018-12-12T23:52:05.877Z,5.38
2018-12-12T23:54:35.145Z,5.34
2018-12-12T23:57:04.421Z,5.36
2018-12-12T23:59:33.728Z,5.39
